Time;durP1;ratioP1;P1;durP2;ratioP2;P2;SDS_P1;SDS_P2;PMS_P1;PMS_P2;Temp;Humidity;BMP_temperature;BMP_pressure;BME280_temperature;BME280_humidity;BME280_pressure;Samples;Min_cycle;Max_cycle;Signal;HPM_P1;HPM_P2
2021/11/24 00:01:22;;;;;;;60.70;33.20;;;;;;;4.98;85.12;100824.13;103374;1313;138885;-65
2021/11/24 00:03:55;;;;;;;61.50;34.50;;;;;;;4.99;85.10;100825.50;104223;1313;107949;-64
2021/11/24 00:06:28;;;;;;;64.60;36.50;;;;;;;4.99;85.17;100825.16;103164;1316;138484;-64
2021/11/24 00:09:00;;;;;;;62.70;34.90;;;;;;;4.99;85.30;100825.16;104620;1313;96339;-64
2021/11/24 00:11:33;;;;;;;58.00;34.40;;;;;;;4.99;85.17;100821.88;104270;1309;312918;-63
2021/11/24 00:14:06;;;;;;;55.50;33.60;;;;;;;4.95;85.00;100821.89;104694;1313;112459;-64
2021/11/24 00:16:38;;;;;;;56.90;33.20;;;;;;;4.95;85.05;100820.86;103681;1320;108902;-64
2021/11/24 00:19:10;;;;;;;54.70;32.10;;;;;;;4.99;85.21;100821.19;104043;1313;138875;-65
2021/11/24 00:21:43;;;;;;;59.60;33.20;;;;;;;5.01;85.30;100821.36;103234;1313;97881;-65
2021/11/24 00:24:16;;;;;;;59.90;33.10;;;;;;;5.06;85.27;100821.03;103231;1314;137976;-64
2021/11/24 00:26:48;;;;;;;58.60;33.30;;;;;;;5.06;84.76;100818.27;103273;1314;112776;-64
2021/11/24 00:29:21;;;;;;;64.60;34.00;;;;;;;5.04;84.74;100813.98;104699;1313;108889;-64
2021/11/24 00:31:53;;;;;;;57.20;33.30;;;;;;;5.00;84.90;100809.82;103489;1316;138313;-64
2021/11/24 00:34:26;;;;;;;60.70;33.80;;;;;;;4.99;84.90;100806.37;103249;1313;97877;-64
2021/11/24 00:36:58;;;;;;;55.40;31.90;;;;;;;4.97;84.97;100805.17;103791;1313;138769;-64
2021/11/24 00:39:31;;;;;;;57.50;32.60;;;;;;;4.98;84.97;100802.75;104232;1314;112379;-65
2021/11/24 00:42:03;;;;;;;51.30;31.10;;;;;;;5.01;84.96;100803.45;104563;1313;140319;-64
2021/11/24 00:44:38;;;;;;;54.20;32.40;;;;;;;5.06;85.19;100803.29;104172;1314;108941;-64
2021/11/24 00:47:10;;;;;;;51.10;32.10;;;;;;;5.12;85.00;100806.72;104567;1313;96290;-64
2021/11/24 00:49:43;;;;;;;56.80;33.10;;;;;;;5.13;84.81;100803.95;104507;1313;138020;-64
2021/11/24 00:52:15;;;;;;;61.20;35.70;;;;;;;5.12;84.64;100798.27;104498;1314;112569;-64
2021/11/24 00:54:48;;;;;;;57.80;31.30;;;;;;;5.11;84.48;100796.72;104087;1313;138999;-63
2021/11/24 00:57:21;;;;;;;56.20;32.50;;;;;;;5.07;84.60;100798.29;103346;1313;108576;-64
2021/11/24 00:59:53;;;;;;;52.80;31.40;;;;;;;5.06;84.56;100797.42;103926;1313;139307;-64
2021/11/24 01:02:26;;;;;;;55.00;30.50;;;;;;;5.09;84.70;100793.45;104028;1313;97867;-64
2021/11/24 01:04:58;;;;;;;48.00;28.90;;;;;;;5.10;84.46;100789.83;103637;1314;112461;-64
2021/11/24 01:07:31;;;;;;;56.00;31.20;;;;;;;5.06;84.33;100793.29;103220;1312;139154;-63
2021/11/24 01:10:04;;;;;;;55.70;31.30;;;;;;;5.07;84.34;100794.33;104043;1315;108902;-64
2021/11/24 01:12:38;;;;;;;52.70;31.40;;;;;;;5.08;84.48;100796.21;103096;1313;138354;-64
2021/11/24 01:15:12;;;;;;;51.20;31.00;;;;;;;5.08;84.57;100799.66;103277;1314;97836;-65
2021/11/24 01:17:44;;;;;;;55.80;30.80;;;;;;;5.07;84.54;100801.39;103199;1315;138386;-63
2021/11/24 01:20:17;;;;;;;50.70;29.00;;;;;;;5.04;84.53;100795.19;103106;1314;108415;-63
2021/11/24 01:22:50;;;;;;;50.50;29.10;;;;;;;5.01;84.48;100796.02;103087;1317;109034;-63
2021/11/24 01:25:22;;;;;;;50.00;28.20;;;;;;;5.00;84.53;100790.52;103104;1313;138767;-63
2021/11/24 01:27:55;;;;;;;46.70;27.90;;;;;;;5.02;84.72;100788.63;103225;1314;98025;-63
2021/11/24 01:30:28;;;;;;;48.50;29.40;;;;;;;5.04;84.57;100790.54;103836;1315;138278;-63
2021/11/24 01:33:00;;;;;;;51.30;28.60;;;;;;;5.04;84.55;100787.09;104511;1314;108874;-63
2021/11/24 01:35:33;;;;;;;51.70;30.30;;;;;;;5.03;84.58;100786.74;104423;1314;139363;-65
2021/11/24 01:38:05;;;;;;;51.80;29.70;;;;;;;5.03;84.62;100784.67;104028;1313;96541;-64
2021/11/24 01:40:39;;;;;;;55.30;30.20;;;;;;;5.02;84.42;100781.04;104200;1315;95886;-64
2021/11/24 01:43:11;;;;;;;50.40;29.10;;;;;;;5.03;84.61;100778.30;103277;1313;138855;-63
2021/11/24 01:45:44;;;;;;;52.00;29.70;;;;;;;5.06;84.55;100777.77;104454;1314;108920;-64
2021/11/24 01:48:16;;;;;;;47.50;28.30;;;;;;;5.07;84.37;100781.22;104386;1310;138891;-64
2021/11/24 01:50:49;;;;;;;50.60;30.50;;;;;;;5.08;84.22;100779.84;104269;1312;97863;-64
2021/11/24 01:53:22;;;;;;;44.90;27.40;;;;;;;5.07;84.11;100780.36;103126;1313;97971;-63
2021/11/24 01:55:56;;;;;;;51.30;30.00;;;;;;;5.06;84.15;100780.54;102942;1314;137965;-63
2021/11/24 01:58:29;;;;;;;52.10;29.30;;;;;;;5.06;84.14;100781.91;103141;1313;108912;-63
2021/11/24 02:01:02;;;;;;;48.80;27.90;;;;;;;5.02;83.92;100785.86;104420;1313;138080;-63
2021/11/24 02:03:35;;;;;;;40.70;24.70;;;;;;;4.98;83.68;100781.90;103544;1313;98350;-64
2021/11/24 02:06:09;;;;;;;43.10;25.00;;;;;;;4.94;83.91;100777.43;103963;1318;139289;-64
2021/11/24 02:08:41;;;;;;;42.80;23.90;;;;;;;4.94;83.78;100772.95;104505;1309;111574;-64
2021/11/24 02:11:14;;;;;;;37.70;23.20;;;;;;;4.95;83.99;100768.98;104464;1311;109400;-64
2021/11/24 02:13:46;;;;;;;40.00;23.90;;;;;;;4.98;83.73;100770.18;103424;1313;138618;-63
2021/11/24 02:16:20;;;;;;;39.80;23.70;;;;;;;5.00;83.62;100769.66;103416;1315;97905;-63
2021/11/24 02:18:52;;;;;;;39.30;24.10;;;;;;;5.00;83.75;100768.63;103164;1312;138561;-63
2021/11/24 02:21:25;;;;;;;38.80;23.60;;;;;;;4.98;83.53;100764.84;103637;1312;112911;-63
2021/11/24 02:23:57;;;;;;;35.70;22.50;;;;;;;4.95;83.49;100757.27;103361;1312;138933;-63
2021/11/24 02:26:30;;;;;;;36.20;22.80;;;;;;;4.92;83.51;100755.73;104591;1312;108811;-64
2021/11/24 02:29:04;;;;;;;38.10;22.50;;;;;;;4.91;83.55;100750.04;103716;1314;97967;-64
2021/11/24 02:31:37;;;;;;;39.20;22.50;;;;;;;4.89;83.36;100751.94;104287;1314;139023;-65
2021/11/24 02:34:10;;;;;;;40.20;23.60;;;;;;;4.89;83.44;100746.95;103417;1313;112584;-63
2021/11/24 02:36:44;;;;;;;36.50;24.20;;;;;;;4.91;83.76;100744.19;103221;1312;138338;-64
2021/11/24 02:39:17;;;;;;;40.10;25.40;;;;;;;4.91;83.67;100739.52;104302;1312;108597;-63
2021/11/24 02:41:50;;;;;;;44.80;26.60;;;;;;;4.88;83.62;100739.54;103231;1312;139301;-63
2021/11/24 02:44:28;;;;;;;40.50;24.80;;;;;;;4.87;83.64;100740.23;103308;1313;97962;-63
2021/11/24 02:47:10;;;;;;;42.20;25.20;;;;;;;4.84;83.70;100743.33;104684;1312;111451;-64
2021/11/24 02:49:45;;;;;;;44.00;24.50;;;;;;;4.84;83.89;100739.19;103802;1315;139433;-63
2021/11/24 02:52:18;;;;;;;38.90;24.00;;;;;;;4.88;84.03;100736.95;103336;1312;107360;-63
2021/11/24 02:54:56;;;;;;;45.30;25.00;;;;;;;4.91;83.80;100737.80;104535;1313;138635;-64
2021/11/24 02:57:34;;;;;;;42.60;25.20;;;;;;;4.91;83.60;100736.95;103578;1316;97759;-63
2021/11/24 03:00:13;;;;;;;46.10;27.50;;;;;;;4.89;83.47;100736.78;103260;1313;138255;-64
2021/11/24 03:02:47;;;;;;;40.10;24.70;;;;;;;4.89;83.54;100730.05;104651;1312;108437;-64
2021/11/24 03:05:22;;;;;;;42.50;24.60;;;;;;;4.83;83.65;100727.46;104141;1314;108741;-64
2021/11/24 03:07:55;;;;;;;44.90;25.10;;;;;;;4.81;83.80;100724.88;103132;1315;138442;-64
2021/11/24 03:10:28;;;;;;;40.30;24.50;;;;;;;4.78;83.53;100725.58;103143;1312;97820;-64
2021/11/24 03:13:02;;;;;;;41.30;24.20;;;;;;;4.75;83.52;100726.96;104260;1313;139125;-63
2021/11/24 03:15:35;;;;;;;38.70;23.10;;;;;;;4.75;83.79;100725.59;103348;1314;108841;-63
2021/11/24 03:18:09;;;;;;;42.60;25.60;;;;;;;4.77;84.05;100725.58;103240;1312;139166;-64
2021/11/24 03:20:42;;;;;;;41.20;24.50;;;;;;;4.77;83.88;100724.89;103227;1315;97961;-63
2021/11/24 03:23:14;;;;;;;38.00;23.50;;;;;;;4.77;83.80;100723.85;104659;1308;96387;-64
2021/11/24 03:25:47;;;;;;;40.70;24.10;;;;;;;4.77;83.94;100719.38;103807;1313;138088;-65
2021/11/24 03:28:19;;;;;;;38.70;23.00;;;;;;;4.76;84.28;100724.90;104094;1317;106663;-64
2021/11/24 03:30:52;;;;;;;38.90;22.70;;;;;;;4.76;84.22;100725.41;104230;1314;138689;-65
2021/11/24 03:33:24;;;;;;;39.90;23.10;;;;;;;4.72;83.87;100722.84;104601;1313;96401;-65
2021/11/24 03:35:57;;;;;;;36.60;22.50;;;;;;;4.71;84.08;100723.19;104518;1314;140731;-64
2021/11/24 03:38:29;;;;;;;38.20;21.70;;;;;;;4.75;84.34;100720.94;104643;1314;111995;-64
2021/11/24 03:41:03;;;;;;;39.50;23.70;;;;;;;4.75;84.11;100718.52;104596;1313;109171;-64
2021/11/24 03:43:36;;;;;;;40.90;23.70;;;;;;;4.75;84.60;100718.34;103556;1314;138789;-63
2021/11/24 03:46:09;;;;;;;42.90;24.70;;;;;;;4.76;84.50;100717.14;104650;1309;95759;-64
2021/11/24 03:48:41;;;;;;;43.60;24.80;;;;;;;4.77;84.53;100721.96;104263;1313;138329;-65
2021/11/24 03:51:15;;;;;;;47.80;25.30;;;;;;;4.78;84.67;100718.86;103421;1313;112541;-64
2021/11/24 03:53:49;;;;;;;43.40;24.70;;;;;;;4.75;84.77;100718.87;103350;1312;139392;-64
2021/11/24 03:56:21;;;;;;;42.60;25.00;;;;;;;4.77;84.79;100722.65;104619;1313;108153;-64
2021/11/24 03:58:53;;;;;;;45.80;23.60;;;;;;;4.77;84.64;100720.92;104606;1313;96152;-64
2021/11/24 04:01:26;;;;;;;42.00;23.00;;;;;;;4.77;84.74;100719.38;104497;1315;138702;-64
2021/11/24 04:03:59;;;;;;;40.60;23.40;;;;;;;4.78;84.77;100721.10;104182;1314;111946;-64
2021/11/24 04:06:33;;;;;;;43.10;24.90;;;;;;;4.81;84.93;100720.40;103636;1317;138339;-64
2021/11/24 04:09:06;;;;;;;48.00;25.70;;;;;;;4.82;84.60;100714.02;103960;1313;108590;-64
2021/11/24 04:11:39;;;;;;;45.90;25.70;;;;;;;4.82;84.75;100710.58;103289;1311;138400;-64
2021/11/24 04:14:12;;;;;;;42.10;24.40;;;;;;;4.85;84.79;100706.63;104617;1313;96629;-64
2021/11/24 04:16:44;;;;;;;41.10;23.10;;;;;;;4.87;84.64;100705.60;104632;1313;112709;-64
2021/11/24 04:19:17;;;;;;;44.00;23.60;;;;;;;4.86;84.70;100706.64;104539;1313;138734;-64
2021/11/24 04:21:50;;;;;;;41.30;23.60;;;;;;;4.87;84.58;100707.84;104591;1313;109426;-64
2021/11/24 04:24:25;;;;;;;40.10;23.00;;;;;;;4.87;84.54;100706.98;104518;1312;139100;-65
2021/11/24 04:26:57;;;;;;;43.60;24.50;;;;;;;4.92;84.88;100708.16;104216;1309;95921;-64
2021/11/24 04:29:31;;;;;;;43.40;24.50;;;;;;;4.94;84.61;100706.09;103801;1313;111536;-63
2021/11/24 04:32:04;;;;;;;43.80;24.60;;;;;;;4.91;84.44;100701.45;104121;1313;137995;-64
2021/11/24 04:34:38;;;;;;;42.30;24.50;;;;;;;4.82;84.41;100705.41;104093;1317;110452;-64
2021/11/24 04:37:12;;;;;;;38.90;22.50;;;;;;;4.81;84.69;100697.83;103293;1312;138688;-64
2021/11/24 04:39:44;;;;;;;43.60;22.90;;;;;;;4.80;84.43;100698.52;103878;1313;97755;-64
2021/11/24 04:42:17;;;;;;;41.30;23.00;;;;;;;4.80;84.53;100703.17;103882;1309;139432;-64
2021/11/24 04:44:51;;;;;;;38.40;22.10;;;;;;;4.82;84.61;100706.79;103710;1317;108223;-64
2021/11/24 04:47:24;;;;;;;39.40;22.60;;;;;;;4.83;84.68;100706.45;103430;1308;108948;-64
2021/11/24 04:49:57;;;;;;;40.90;23.80;;;;;;;4.85;84.56;100705.60;103280;1314;137997;-64
2021/11/24 04:52:30;;;;;;;39.80;23.50;;;;;;;4.90;84.69;100700.77;104429;1308;97891;-65
2021/11/24 04:55:03;;;;;;;42.10;24.50;;;;;;;4.89;84.60;100699.91;103335;1313;138316;-64
2021/11/24 04:57:36;;;;;;;41.50;23.60;;;;;;;4.87;84.72;100694.40;103420;1313;108833;-64
2021/11/24 05:00:16;;;;;;;41.80;23.00;;;;;;;4.88;84.62;100694.91;104558;1312;142178;-65
2021/11/24 05:02:50;;;;;;;44.00;22.90;;;;;;;4.87;84.42;100691.98;103509;1314;97870;-63
2021/11/24 05:05:28;;;;;;;37.70;22.50;;;;;;;4.86;84.64;100695.78;104719;1313;96025;-64
2021/11/24 05:08:02;;;;;;;38.60;22.80;;;;;;;4.92;84.61;100693.17;104545;1313;138637;-64
2021/11/24 05:10:35;;;;;;;40.20;23.00;;;;;;;4.98;84.41;100694.71;104052;1313;109246;-64
2021/11/24 05:13:09;;;;;;;37.90;22.20;;;;;;;4.95;84.27;100697.98;103213;1314;138466;-64
2021/11/24 05:15:43;;;;;;;39.30;22.10;;;;;;;4.94;84.11;100696.61;103317;1314;97881;-64
2021/11/24 05:18:21;;;;;;;42.00;22.90;;;;;;;4.91;84.13;100692.33;103314;1313;138434;-63
2021/11/24 05:20:55;;;;;;;37.60;21.30;;;;;;;4.89;84.14;100690.27;103374;1312;112675;-63
2021/11/24 05:23:30;;;;;;;37.20;21.60;;;;;;;4.84;83.85;100686.82;103337;1313;109211;-64
2021/11/24 05:26:02;;;;;;;37.70;22.40;;;;;;;4.82;84.26;100686.97;104473;1313;139987;-64
2021/11/24 05:28:35;;;;;;;36.40;21.40;;;;;;;4.82;84.02;100691.28;104405;1314;95983;-64
2021/11/24 05:31:08;;;;;;;34.70;20.90;;;;;;;4.82;84.20;100692.84;104598;1312;139062;-64
2021/11/24 05:33:42;;;;;;;35.90;21.20;;;;;;;4.85;84.36;100687.50;103672;1313;112733;-64
2021/11/24 05:36:15;;;;;;;36.00;22.00;;;;;;;4.91;84.54;100685.77;103557;1312;138259;-64
2021/11/24 05:38:48;;;;;;;35.60;20.80;;;;;;;4.92;84.05;100685.77;103344;1312;108493;-64
2021/11/24 05:41:20;;;;;;;36.10;21.70;;;;;;;4.90;84.00;100690.59;103331;1315;97888;-63
2021/11/24 05:43:57;;;;;;;39.50;22.30;;;;;;;4.88;83.90;100692.16;104532;1314;137734;-64
2021/11/24 05:46:41;;;;;;;37.20;21.60;;;;;;;4.88;84.01;100688.88;103982;1313;112476;-63
2021/11/24 05:49:14;;;;;;;33.80;21.10;;;;;;;4.86;83.94;100688.20;103238;1312;139713;-63
2021/11/24 05:51:46;;;;;;;32.70;19.90;;;;;;;4.85;83.93;100686.30;103337;1314;109057;-63
2021/11/24 05:54:19;;;;;;;35.40;20.20;;;;;;;4.87;84.04;100686.13;103230;1312;139393;-64
2021/11/24 05:56:51;;;;;;;38.10;22.20;;;;;;;4.91;84.01;100685.94;103333;1312;98030;-63
2021/11/24 05:59:24;;;;;;;37.50;21.00;;;;;;;4.91;83.81;100688.36;103331;1313;112433;-64
2021/11/24 06:01:56;;;;;;;35.70;22.30;;;;;;;4.92;84.00;100687.48;103179;1312;138011;-64
2021/11/24 06:04:29;;;;;;;37.10;22.40;;;;;;;4.93;83.92;100689.90;103315;1314;109043;-64
2021/11/24 06:07:02;;;;;;;38.40;23.60;;;;;;;4.89;83.71;100691.81;103374;1314;138642;-63
2021/11/24 06:09:34;;;;;;;37.70;21.50;;;;;;;4.85;83.77;100700.27;103371;1314;97876;-65
2021/11/24 06:12:09;;;;;;;32.80;20.20;;;;;;;4.83;83.76;100702.31;103773;1309;139979;-64
2021/11/24 06:14:43;;;;;;;30.80;19.20;;;;;;;4.86;83.89;100707.15;103489;1312;108975;-63
2021/11/24 06:17:16;;;;;;;32.60;19.90;;;;;;;4.88;83.84;100709.91;103361;1313;109485;-63
2021/11/24 06:19:48;;;;;;;30.60;20.00;;;;;;;4.90;83.88;100706.10;103224;1316;138908;-65
2021/11/24 06:22:21;;;;;;;34.90;21.10;;;;;;;4.91;83.85;100707.48;103375;1310;97705;-65
2021/11/24 06:24:53;;;;;;;33.10;20.60;;;;;;;4.95;83.80;100706.09;103282;1313;138146;-64
2021/11/24 06:27:26;;;;;;;37.30;21.70;;;;;;;4.93;83.70;100705.92;103345;1313;108574;-64
2021/11/24 06:29:59;;;;;;;32.80;20.30;;;;;;;4.92;83.73;100703.52;103243;1313;138114;-65
2021/11/24 06:32:32;;;;;;;31.90;19.30;;;;;;;4.90;83.46;100706.11;103295;1314;97907;-65
2021/11/24 06:35:04;;;;;;;29.80;19.10;;;;;;;4.85;83.62;100710.08;103227;1313;97943;-64
2021/11/24 06:37:38;;;;;;;31.80;19.00;;;;;;;4.84;83.80;100710.76;103476;1312;138589;-65
2021/11/24 06:40:13;;;;;;;32.00;19.20;;;;;;;4.87;83.71;100713.18;103347;1312;109410;-65
2021/11/24 06:42:46;;;;;;;29.90;18.50;;;;;;;4.87;83.65;100715.59;103265;1312;139091;-65
2021/11/24 06:45:18;;;;;;;32.40;20.20;;;;;;;4.88;83.86;100715.93;103335;1312;97833;-65
2021/11/24 06:47:51;;;;;;;32.10;19.30;;;;;;;4.89;83.91;100715.94;104536;1312;138149;-65
2021/11/24 06:50:23;;;;;;;31.40;20.00;;;;;;;4.87;83.72;100714.21;103637;1312;111304;-65
2021/11/24 06:52:56;;;;;;;29.60;19.40;;;;;;;4.85;83.80;100720.93;103225;1310;108938;-65
2021/11/24 06:55:28;;;;;;;29.20;18.00;;;;;;;4.81;83.69;100719.89;103197;1312;138695;-64
2021/11/24 06:58:01;;;;;;;27.50;19.00;;;;;;;4.82;83.87;100722.29;103276;1309;97852;-65
2021/11/24 07:00:33;;;;;;;31.00;19.60;;;;;;;4.83;84.03;100723.49;103324;1312;139170;-65
2021/11/24 07:03:06;;;;;;;29.70;19.00;;;;;;;4.86;84.00;100725.24;104732;1313;112646;-64
2021/11/24 07:05:39;;;;;;;30.90;19.70;;;;;;;4.90;83.95;100721.61;104736;1312;109057;-65
2021/11/24 07:08:12;;;;;;;30.90;19.70;;;;;;;4.93;83.82;100728.15;103395;1316;137960;-64
2021/11/24 07:10:44;;;;;;;30.70;20.00;;;;;;;4.95;83.65;100726.08;104014;1312;96556;-65
2021/11/24 07:13:17;;;;;;;31.80;20.90;;;;;;;4.96;83.79;100723.14;103428;1314;137980;-64
2021/11/24 07:15:49;;;;;;;33.40;21.30;;;;;;;5.01;83.85;100723.81;103223;1314;112600;-64
2021/11/24 07:18:22;;;;;;;30.40;19.50;;;;;;;5.04;83.73;100721.76;103176;1313;138854;-64
2021/11/24 07:20:54;;;;;;;29.30;19.40;;;;;;;5.08;83.65;100724.17;103231;1314;106249;-64
2021/11/24 07:23:27;;;;;;;27.20;18.50;;;;;;;5.10;83.70;100721.05;104467;1317;96670;-65
2021/11/24 07:25:59;;;;;;;28.90;19.10;;;;;;;5.10;83.68;100719.84;104438;1314;138750;-64
2021/11/24 07:28:31;;;;;;;28.80;18.70;;;;;;;5.14;83.62;100719.66;104471;1313;112499;-64
2021/11/24 07:31:04;;;;;;;32.10;20.40;;;;;;;5.22;83.76;100723.27;104386;1311;138569;-64
2021/11/24 07:33:36;;;;;;;32.00;20.80;;;;;;;5.27;83.26;100719.64;104033;1314;109085;-65
2021/11/24 07:36:08;;;;;;;29.50;19.20;;;;;;;5.30;83.30;100719.10;103918;1314;139082;-63
2021/11/24 07:38:41;;;;;;;30.20;19.80;;;;;;;5.28;83.18;100719.64;104067;1314;97377;-63
2021/11/24 07:41:13;;;;;;;28.60;19.50;;;;;;;5.26;82.87;100718.61;104568;1314;110188;-63
2021/11/24 07:43:45;;;;;;;30.40;19.50;;;;;;;5.23;82.84;100716.73;104525;1313;139792;-64
2021/11/24 07:46:17;;;;;;;28.70;19.10;;;;;;;5.25;83.28;100718.95;104293;1313;109294;-63
2021/11/24 07:48:50;;;;;;;27.30;18.60;;;;;;;5.28;83.07;100718.59;104284;1309;140312;-63
2021/11/24 07:51:23;;;;;;;32.10;19.70;;;;;;;5.32;83.21;100721.67;104441;1314;96072;-64
2021/11/24 07:53:55;;;;;;;30.30;20.40;;;;;;;5.35;83.26;100713.73;104409;1313;139465;-63
2021/11/24 07:56:27;;;;;;;33.40;21.20;;;;;;;5.40;82.79;100720.11;104420;1311;108338;-63
2021/11/24 07:59:00;;;;;;;29.50;19.30;;;;;;;5.37;82.76;100723.71;104117;1315;109151;-63
2021/11/24 08:01:32;;;;;;;28.20;18.90;;;;;;;5.39;82.99;100721.49;104415;1311;138514;-65
2021/11/24 08:04:05;;;;;;;28.40;18.60;;;;;;;5.39;82.92;100721.33;103461;1321;96215;-64
2021/11/24 08:06:37;;;;;;;29.40;19.00;;;;;;;5.39;82.78;100722.88;103699;1314;138821;-63
2021/11/24 08:09:10;;;;;;;27.90;18.80;;;;;;;5.40;82.82;100719.42;103265;1313;109158;-63
2021/11/24 08:11:42;;;;;;;27.50;18.40;;;;;;;5.41;82.91;100715.45;103109;1312;309892;-64
2021/11/24 08:14:14;;;;;;;28.50;19.50;;;;;;;5.41;82.89;100706.66;103153;1316;140186;-63
2021/11/24 08:16:47;;;;;;;30.60;20.50;;;;;;;5.41;82.62;100709.59;103229;1313;98234;-64
2021/11/24 08:19:20;;;;;;;33.10;20.00;;;;;;;5.38;82.60;100711.83;103070;1314;138086;-64
2021/11/24 08:21:52;;;;;;;30.10;18.90;;;;;;;5.35;82.84;100711.31;103151;1312;109032;-64
2021/11/24 08:24:24;;;;;;;28.20;18.70;;;;;;;5.36;82.71;100712.35;103184;1312;139041;-63
2021/11/24 08:26:57;;;;;;;30.10;19.20;;;;;;;5.37;82.69;100713.55;103286;1313;97933;-64
2021/11/24 08:29:29;;;;;;;26.20;18.00;;;;;;;5.40;82.77;100710.45;103343;1315;97742;-63
2021/11/24 08:32:01;;;;;;;27.10;18.60;;;;;;;5.47;82.66;100709.73;103723;1313;138129;-64
2021/11/24 08:34:34;;;;;;;25.80;18.50;;;;;;;5.53;82.83;100716.77;103039;1318;108407;-64
2021/11/24 08:37:07;;;;;;;28.50;19.40;;;;;;;5.56;82.63;100715.38;102944;1312;138265;-63
2021/11/24 08:39:41;;;;;;;27.80;18.20;;;;;;;5.52;82.38;100718.67;102867;1313;97874;-64
2021/11/24 08:42:13;;;;;;;31.20;19.40;;;;;;;5.52;82.46;100722.13;102773;1313;138858;-63
2021/11/24 08:44:47;;;;;;;27.20;18.10;;;;;;;5.53;82.37;100726.94;103173;1314;112532;-63
2021/11/24 08:47:19;;;;;;;25.90;17.90;;;;;;;5.52;82.44;100733.16;103149;1314;108516;-64
2021/11/24 08:49:51;;;;;;;25.60;17.40;;;;;;;5.55;82.70;100734.86;103220;1313;138514;-63
2021/11/24 08:52:23;;;;;;;30.10;19.30;;;;;;;5.56;82.47;100734.70;103212;1315;97884;-64
2021/11/24 08:54:55;;;;;;;29.60;18.20;;;;;;;5.58;82.26;100738.85;103158;1317;138001;-64
2021/11/24 08:57:27;;;;;;;29.80;19.50;;;;;;;5.59;82.36;100738.67;103237;1314;112536;-63
2021/11/24 08:59:59;;;;;;;29.10;19.80;;;;;;;5.57;82.30;100740.40;103148;1314;138507;-64
2021/11/24 09:02:32;;;;;;;27.40;18.30;;;;;;;5.55;82.50;100736.42;103258;1314;109039;-64
2021/11/24 09:05:06;;;;;;;27.60;18.30;;;;;;;5.55;82.35;100737.63;103317;1314;97839;-63
2021/11/24 09:07:38;;;;;;;26.10;17.70;;;;;;;5.53;82.35;100731.60;104527;1313;142532;-64
2021/11/24 09:10:11;;;;;;;26.90;16.90;;;;;;;5.52;82.49;100729.71;102542;1314;112205;-63
2021/11/24 09:12:44;;;;;;;25.20;17.00;;;;;;;5.51;82.34;100726.27;103871;1314;138838;-64
2021/11/24 09:15:16;;;;;;;27.60;18.70;;;;;;;5.53;82.43;100719.88;104681;1307;108898;-62
2021/11/24 09:18:08;;;;;;;28.80;19.00;;;;;;;5.58;82.62;100715.90;103763;1316;139514;-63
2021/11/24 09:20:41;;;;;;;31.20;19.90;;;;;;;5.62;82.41;100721.74;103189;1313;97868;-63
2021/11/24 09:23:15;;;;;;;27.20;18.00;;;;;;;5.63;82.14;100720.20;103013;1314;112955;-63
2021/11/24 09:26:00;;;;;;;30.20;19.80;;;;;;;5.62;82.34;100717.79;103314;1314;138908;-63
2021/11/24 09:28:34;;;;;;;28.80;18.90;;;;;;;5.62;82.23;100721.92;104642;1314;108809;-63
2021/11/24 09:31:06;;;;;;;24.20;17.30;;;;;;;5.61;82.09;100711.75;104581;1315;138526;-64
2021/11/24 09:33:39;;;;;;;24.90;17.70;;;;;;;5.67;82.14;100711.53;104687;1314;95958;-63
2021/11/24 09:36:12;;;;;;;25.30;17.70;;;;;;;5.75;81.94;100709.79;103451;1311;139001;-64
2021/11/24 09:38:44;;;;;;;25.80;17.00;;;;;;;5.81;81.93;100712.68;103278;1315;108951;-64
2021/11/24 09:41:17;;;;;;;24.80;17.40;;;;;;;5.83;81.50;100710.25;103321;1315;109016;-63
2021/11/24 09:43:53;;;;;;;25.30;17.80;;;;;;;5.81;81.57;100709.23;103142;1315;138346;-64
2021/11/24 09:46:27;;;;;;;27.70;18.30;;;;;;;5.80;81.72;100709.93;104583;1314;96703;-65
2021/11/24 09:49:02;;;;;;;28.50;18.40;;;;;;;5.78;81.34;100709.25;104258;1308;138004;-66
2021/11/24 09:51:35;;;;;;;28.30;18.10;;;;;;;5.75;81.53;100706.67;103957;1314;109111;-65
2021/11/24 09:54:10;;;;;;;27.60;18.20;;;;;;;5.74;81.66;100704.95;103383;1313;138763;-64
2021/11/24 09:56:45;;;;;;;26.90;17.80;;;;;;;5.77;81.61;100703.73;102986;1316;98454;-64
2021/11/24 09:59:19;;;;;;;23.10;16.70;;;;;;;5.81;81.35;100704.58;102708;1318;97935;-63
2021/11/24 10:01:52;;;;;;;26.70;18.10;;;;;;;5.83;81.21;100699.39;103355;1311;138428;-63
2021/11/24 10:04:26;;;;;;;26.40;17.50;;;;;;;5.85;81.60;100701.27;103333;1313;108906;-63
2021/11/24 10:06:59;;;;;;;26.10;18.00;;;;;;;5.92;81.56;100700.23;103260;1312;138409;-64
2021/11/24 10:09:31;;;;;;;28.10;18.90;;;;;;;5.93;81.32;100699.02;103358;1313;98001;-63
2021/11/24 10:12:04;;;;;;;29.20;19.50;;;;;;;5.91;81.34;100696.77;103267;1312;138315;-64
2021/11/24 10:14:38;;;;;;;25.90;17.80;;;;;;;5.88;81.06;100693.98;104483;1312;110734;-64
2021/11/24 10:17:15;;;;;;;28.50;17.90;;;;;;;5.86;81.04;100699.70;104456;1313;109000;-63
2021/11/24 10:20:03;;;;;;;27.50;18.10;;;;;;;5.87;81.25;100696.77;104314;1313;138916;-64
2021/11/24 10:22:36;;;;;;;26.00;16.80;;;;;;;5.91;81.23;100694.69;103206;1312;97982;-63
2021/11/24 10:25:12;;;;;;;27.80;17.90;;;;;;;5.94;81.26;100695.39;102763;1312;138505;-63
2021/11/24 10:27:47;;;;;;;27.50;18.00;;;;;;;5.95;81.08;100687.96;104151;1312;114345;-64
2021/11/24 10:30:28;;;;;;;30.00;18.70;;;;;;;5.97;80.99;100685.70;103384;1318;138444;-65
2021/11/24 10:33:17;;;;;;;30.40;18.90;;;;;;;6.01;81.14;100683.08;102484;1315;108851;-65
2021/11/24 10:36:05;;;;;;;29.20;19.40;;;;;;;6.03;80.70;100681.52;103126;1312;96479;-65
2021/11/24 10:38:44;;;;;;;32.10;18.80;;;;;;;6.03;81.00;100683.06;103272;1314;99427;-65
2021/11/24 10:41:35;;;;;;;27.50;17.80;;;;;;;6.02;81.02;100677.89;102700;1313;112024;-65
2021/11/24 10:44:30;;;;;;;26.40;17.00;;;;;;;5.99;80.77;100676.70;102541;1309;138747;-64
2021/11/24 10:47:04;;;;;;;25.00;17.00;;;;;;;5.99;80.81;100671.54;102709;1313;107531;-63
2021/11/24 10:49:42;;;;;;;24.50;17.00;;;;;;;6.01;80.81;100667.38;103914;1310;138364;-64
2021/11/24 10:52:21;;;;;;;25.20;16.90;;;;;;;6.03;80.58;100662.52;104439;1316;97658;-64
2021/11/24 10:55:03;;;;;;;24.40;16.20;;;;;;;6.01;80.44;100659.27;103216;1320;138776;-64
2021/11/24 10:57:37;;;;;;;25.50;17.30;;;;;;;6.02;80.52;100659.08;104544;1312;109054;-64
2021/11/24 11:00:16;;;;;;;25.30;17.50;;;;;;;6.04;80.81;100660.80;103655;1320;108920;-65
2021/11/24 11:02:49;;;;;;;24.80;16.30;;;;;;;6.04;80.68;100655.95;104055;1313;139143;-64
2021/11/24 11:05:24;;;;;;;23.40;16.10;;;;;;;6.06;80.83;100655.24;103817;1312;96108;-63
2021/11/24 11:08:07;;;;;;;22.40;16.00;;;;;;;6.08;80.74;100649.53;103805;1314;138556;-63
2021/11/24 11:10:49;;;;;;;23.90;16.50;;;;;;;6.11;80.84;100649.70;103787;1319;139005;-63
2021/11/24 11:13:24;;;;;;;24.10;15.70;;;;;;;6.17;80.74;100647.93;104556;1310;108960;-63
2021/11/24 11:15:57;;;;;;;22.50;16.10;;;;;;;6.21;80.98;100645.30;104653;1315;96243;-63
2021/11/24 11:18:32;;;;;;;23.00;16.50;;;;;;;6.26;80.87;100641.98;104162;1316;138003;-63
2021/11/24 11:21:08;;;;;;;24.70;17.00;;;;;;;6.26;80.64;100640.06;104685;1314;112459;-63
2021/11/24 11:23:43;;;;;;;24.50;17.00;;;;;;;6.26;80.39;100639.71;104559;1317;138382;-62
2021/11/24 11:26:17;;;;;;;24.60;16.30;;;;;;;6.25;80.40;100639.39;103928;1320;107989;-63
2021/11/24 11:28:52;;;;;;;21.50;15.30;;;;;;;6.21;80.19;100635.63;103629;1320;139267;-64
2021/11/24 11:31:28;;;;;;;23.10;15.80;;;;;;;6.19;80.24;100635.13;103811;1312;97378;-64
2021/11/24 11:34:02;;;;;;;23.90;16.20;;;;;;;6.17;80.37;100626.86;104603;1312;112410;-64